Time;durP1;ratioP1;P1;durP2;ratioP2;P2;SDS_P1;SDS_P2;PMS_P1;PMS_P2;Temp;Humidity;BMP_temperature;BMP_pressure;BME280_temperature;BME280_humidity;BME280_pressure;Samples;Min_cycle;Max_cycle;Signal;HPM_P1;HPM_P2
2021/08/01 00:01:21;;;;;;;1.98;1.33;;;20.90;69.90;;;;;;5095490;28;20039;-72
2021/08/01 00:03:47;;;;;;;2.53;1.15;;;21.00;69.90;;;;;;5095832;28;20113;-72
2021/08/01 00:06:13;;;;;;;2.63;1.45;;;21.00;70.00;;;;;;5095560;28;20428;-72
2021/08/01 00:08:41;;;;;;;1.40;1.08;;;20.90;69.90;;;;;;5095133;28;20101;-72
2021/08/01 00:11:07;;;;;;;2.00;1.23;;;20.90;69.90;;;;;;5094989;28;20035;-72
2021/08/01 00:13:33;;;;;;;1.67;1.23;;;20.90;69.90;;;;;;5094927;28;20035;-72
2021/08/01 00:16:00;;;;;;;2.47;1.38;;;20.90;69.90;;;;;;5095517;28;20036;-72
2021/08/01 00:18:26;;;;;;;2.33;1.08;;;21.00;70.00;;;;;;5095041;28;20435;-72
2021/08/01 00:20:52;;;;;;;2.03;1.20;;;20.90;69.90;;;;;;5095040;28;20065;-72
2021/08/01 00:23:17;;;;;;;1.40;1.20;;;20.90;69.90;;;;;;5094999;28;20118;-72
2021/08/01 00:25:43;;;;;;;2.92;1.33;;;20.90;70.00;;;;;;5095512;28;20047;-72
2021/08/01 00:28:09;;;;;;;2.28;1.08;;;20.90;69.90;;;;;;5094757;28;20128;-72
2021/08/01 00:30:35;;;;;;;2.38;1.05;;;20.90;69.90;;;;;;5095115;28;20460;-72
2021/08/01 00:33:01;;;;;;;2.85;1.27;;;20.90;70.00;;;;;;5094763;28;20124;-72
2021/08/01 00:35:28;;;;;;;1.67;1.10;;;20.90;69.90;;;;;;5095435;28;20036;-72
2021/08/01 00:37:54;;;;;;;2.00;1.45;;;20.90;69.90;;;;;;5095102;28;20135;-72
2021/08/01 00:40:22;;;;;;;2.65;1.25;;;20.90;69.90;;;;;;5095422;28;20479;-72
2021/08/01 00:42:49;;;;;;;2.38;1.40;;;20.90;69.90;;;;;;5094795;28;20040;-72
2021/08/01 00:45:15;;;;;;;1.33;1.10;;;20.90;69.90;;;;;;5095362;28;20440;-72
2021/08/01 00:47:43;;;;;;;2.05;1.30;;;20.90;69.90;;;;;;5098719;28;20043;-72
2021/08/01 00:50:09;;;;;;;2.72;1.30;;;20.90;69.90;;;;;;5099278;28;20116;-72
2021/08/01 00:52:36;;;;;;;2.22;1.45;;;20.90;69.90;;;;;;5098591;28;20036;-72
2021/08/01 00:55:07;;;;;;;3.72;1.50;;;20.90;69.90;;;;;;5099123;28;20040;-72
2021/08/01 00:57:33;;;;;;;1.50;1.10;;;20.90;69.90;;;;;;5098452;28;20474;-72
2021/08/01 01:00:00;;;;;;;2.10;1.10;;;20.90;69.90;;;;;;5098916;28;20048;-71
2021/08/01 01:02:37;;;;;;;1.90;1.17;;;20.90;69.90;;;;;;5098430;28;20036;-72
2021/08/01 01:05:25;;;;;;;2.55;0.90;;;20.90;69.90;;;;;;5098440;28;20447;-72
2021/08/01 01:08:29;;;;;;;1.90;1.23;;;20.90;69.90;;;;;;5098350;28;20113;-72
2021/08/01 01:10:58;;;;;;;1.70;0.87;;;20.90;69.90;;;;;;5097658;28;20052;-72
2021/08/01 01:13:32;;;;;;;1.40;1.17;;;20.90;70.00;;;;;;5098002;28;20290;-72
2021/08/01 01:16:00;;;;;;;1.73;1.35;;;20.90;69.90;;;;;;5098072;28;20459;-72
2021/08/01 01:18:41;;;;;;;2.83;1.42;;;20.80;69.90;;;;;;5098079;28;20058;-72
2021/08/01 01:21:25;;;;;;;3.13;1.40;;;20.90;69.90;;;;;;5098052;28;20039;-72
2021/08/01 01:24:15;;;;;;;2.50;1.30;;;20.90;69.90;;;;;;5097918;28;20374;-72
2021/08/01 01:27:12;;;;;;;1.20;1.10;;;20.90;69.90;;;;;;5097866;28;20090;-72
2021/08/01 01:29:49;;;;;;;1.38;1.02;;;20.80;69.90;;;;;;5097225;28;20138;-72
2021/08/01 01:32:36;;;;;;;2.75;1.13;;;20.80;69.90;;;;;;5098198;28;20064;-72
2021/08/01 01:35:05;;;;;;;1.58;1.10;;;20.90;69.90;;;;;;5098233;28;20040;-72
2021/08/01 01:37:33;;;;;;;1.10;1.00;;;20.80;70.00;;;;;;5097717;28;20122;-72
2021/08/01 01:40:00;;;;;;;1.98;1.40;;;20.80;69.90;;;;;;5098094;28;20070;-72
2021/08/01 01:42:28;;;;;;;1.83;1.30;;;20.80;69.90;;;;;;5097758;28;20048;-72
2021/08/01 01:44:56;;;;;;;2.00;1.20;;;20.90;70.00;;;;;;5098139;28;20036;-72
2021/08/01 01:47:23;;;;;;;1.90;1.27;;;20.80;69.90;;;;;;5097678;28;20351;-72
2021/08/01 01:49:51;;;;;;;1.65;1.25;;;20.80;69.90;;;;;;5097273;28;20435;-72
2021/08/01 01:52:18;;;;;;;2.63;1.40;;;20.80;70.00;;;;;;5097342;28;20040;-72
2021/08/01 01:54:44;;;;;;;1.10;1.00;;;20.80;70.00;;;;;;5097188;28;20473;-72
2021/08/01 01:57:11;;;;;;;2.15;1.38;;;20.80;70.00;;;;;;5097274;28;20044;-72
2021/08/01 01:59:38;;;;;;;1.40;1.30;;;20.80;70.00;;;;;;5097574;28;20376;-72
2021/08/01 02:02:06;;;;;;;1.60;1.40;;;20.80;70.00;;;;;;5097201;28;20052;-72
2021/08/01 02:04:33;;;;;;;2.63;1.55;;;20.80;70.00;;;;;;5097202;28;20048;-72
2021/08/01 02:06:59;;;;;;;2.45;1.08;;;20.80;70.00;;;;;;5097585;28;20040;-72
2021/08/01 02:09:39;;;;;;;1.42;1.10;;;20.80;70.00;;;;;;5097371;28;20379;-72
2021/08/01 02:12:26;;;;;;;1.80;1.25;;;20.80;69.90;;;;;;5097117;28;20043;-72
2021/08/01 02:14:52;;;;;;;1.50;1.20;;;20.80;69.90;;;;;;5097046;28;20048;-72
2021/08/01 02:17:29;;;;;;;2.35;1.48;;;20.80;70.00;;;;;;5097569;28;20073;-72
2021/08/01 02:19:57;;;;;;;2.15;1.15;;;20.80;70.00;;;;;;5096967;28;20071;-72
2021/08/01 02:22:24;;;;;;;2.15;1.20;;;20.80;70.00;;;;;;5096866;28;20127;-72
2021/08/01 02:24:51;;;;;;;1.85;1.52;;;20.80;70.00;;;;;;5096738;28;20044;-72
2021/08/01 02:27:19;;;;;;;1.33;1.15;;;20.80;70.00;;;;;;5096797;28;20446;-72
2021/08/01 02:29:45;;;;;;;1.60;1.10;;;20.80;70.00;;;;;;5096543;28;20066;-72
2021/08/01 02:32:11;;;;;;;1.67;1.45;;;20.80;70.00;;;;;;5097269;28;20044;-72
2021/08/01 02:34:37;;;;;;;1.60;1.35;;;20.80;70.00;;;;;;5096571;28;20332;-72
2021/08/01 02:37:04;;;;;;;2.22;1.50;;;20.80;70.00;;;;;;5096687;28;20044;-72
2021/08/01 02:39:33;;;;;;;1.88;1.20;;;20.80;70.00;;;;;;5096587;28;20047;-72
2021/08/01 02:41:59;;;;;;;1.83;1.30;;;20.80;70.00;;;;;;5096509;28;20051;-72
2021/08/01 02:44:28;;;;;;;1.35;1.20;;;20.80;70.00;;;;;;5096683;28;20101;-72
2021/08/01 02:46:57;;;;;;;1.98;1.40;;;20.80;70.00;;;;;;5096576;28;20043;-72
2021/08/01 02:49:27;;;;;;;1.88;1.38;;;20.80;70.00;;;;;;5096285;28;20332;-72
2021/08/01 02:51:55;;;;;;;2.05;1.45;;;20.80;70.00;;;;;;5096184;28;20116;-72
2021/08/01 02:54:23;;;;;;;2.85;1.25;;;20.80;70.00;;;;;;5096627;28;20040;-72
2021/08/01 02:56:55;;;;;;;1.98;1.42;;;20.80;70.00;;;;;;5096376;28;20052;-72
2021/08/01 02:59:22;;;;;;;1.48;1.27;;;20.80;70.60;;;;;;5096277;28;20056;-72
2021/08/01 03:01:54;;;;;;;1.40;1.10;;;20.80;70.60;;;;;;5096184;28;20040;-72
2021/08/01 03:04:24;;;;;;;1.92;1.40;;;20.80;70.00;;;;;;5096188;28;20111;-72
2021/08/01 03:06:52;;;;;;;2.20;1.30;;;20.80;70.60;;;;;;5095976;28;20117;-72
2021/08/01 03:09:18;;;;;;;1.40;1.10;;;20.80;70.00;;;;;;5095566;28;20082;-72
2021/08/01 03:11:44;;;;;;;1.60;1.23;;;20.70;70.00;;;;;;5096172;28;20071;-72
2021/08/01 03:14:12;;;;;;;1.58;1.00;;;20.70;70.00;;;;;;5095720;28;20055;-72
2021/08/01 03:16:38;;;;;;;1.85;1.10;;;20.70;70.00;;;;;;5096095;28;20552;-72
2021/08/01 03:19:04;;;;;;;2.15;1.60;;;20.70;70.00;;;;;;5095835;28;20141;-72
2021/08/01 03:21:31;;;;;;;1.40;1.20;;;20.80;70.10;;;;;;5095590;28;20114;-72
2021/08/01 03:23:57;;;;;;;1.98;1.30;;;20.80;70.10;;;;;;5095866;28;20047;-72
2021/08/01 03:26:23;;;;;;;1.70;1.45;;;20.70;70.00;;;;;;5095624;28;20044;-72
2021/08/01 03:28:48;;;;;;;2.95;1.65;;;20.80;70.10;;;;;;5078064;28;20420;-72
2021/08/01 03:31:14;;;;;;;1.85;1.42;;;20.80;70.00;;;;;;5095709;28;20083;-72
2021/08/01 03:33:40;;;;;;;1.83;1.48;;;20.70;70.00;;;;;;5096034;28;20431;-72
2021/08/01 03:36:06;;;;;;;2.50;1.60;;;20.70;70.00;;;;;;5095258;28;20035;-72
2021/08/01 03:38:32;;;;;;;2.03;1.30;;;20.70;70.00;;;;;;5095443;28;20052;-72
2021/08/01 03:40:57;;;;;;;2.17;1.50;;;20.80;70.10;;;;;;5095423;28;20063;-72
2021/08/01 03:43:23;;;;;;;2.40;1.50;;;20.80;70.00;;;;;;5096074;28;20040;-72
2021/08/01 03:45:49;;;;;;;1.83;1.38;;;20.80;70.10;;;;;;5095457;28;20048;-72
2021/08/01 03:48:15;;;;;;;1.90;1.58;;;20.80;70.10;;;;;;5095094;28;20051;-72
2021/08/01 03:50:41;;;;;;;1.88;1.50;;;20.70;70.10;;;;;;5095259;28;20056;-72
2021/08/01 03:53:06;;;;;;;1.73;1.63;;;20.80;70.10;;;;;;5095438;28;20046;-72
2021/08/01 03:55:33;;;;;;;2.05;1.63;;;20.80;70.10;;;;;;5095400;28;20036;-72
2021/08/01 03:57:59;;;;;;;1.52;1.40;;;20.80;70.10;;;;;;5095504;28;20058;-72
2021/08/01 04:00:25;;;;;;;3.85;1.48;;;20.80;70.10;;;;;;5094715;28;20055;-72
2021/08/01 04:02:51;;;;;;;1.73;1.38;;;20.70;70.10;;;;;;5095126;28;20351;-73
2021/08/01 04:05:17;;;;;;;2.53;1.75;;;20.80;70.10;;;;;;5095167;28;20234;-72
2021/08/01 04:07:44;;;;;;;2.60;1.63;;;20.80;70.10;;;;;;5095131;28;20504;-72
2021/08/01 04:10:10;;;;;;;1.60;1.30;;;20.70;70.00;;;;;;5095458;28;20047;-72
2021/08/01 04:12:37;;;;;;;1.73;1.63;;;20.80;70.10;;;;;;5095085;28;20048;-72
2021/08/01 04:15:04;;;;;;;2.08;1.70;;;20.70;70.10;;;;;;5094982;28;20040;-72
2021/08/01 04:17:32;;;;;;;3.22;1.92;;;20.70;70.70;;;;;;5095496;28;20510;-72
2021/08/01 04:19:58;;;;;;;2.75;1.83;;;20.80;70.10;;;;;;5095362;28;20447;-72
2021/08/01 04:22:25;;;;;;;1.75;1.55;;;20.70;70.10;;;;;;5099288;28;20048;-72
2021/08/01 04:24:52;;;;;;;1.75;1.42;;;20.70;70.10;;;;;;5099916;28;20405;-72
2021/08/01 04:27:18;;;;;;;2.13;1.73;;;20.70;70.10;;;;;;5099259;28;20458;-72
2021/08/01 04:29:44;;;;;;;1.90;1.65;;;20.70;70.00;;;;;;5098821;28;20048;-72
2021/08/01 04:32:09;;;;;;;1.70;1.60;;;20.70;70.10;;;;;;5099030;28;20059;-72
2021/08/01 04:34:39;;;;;;;2.03;1.77;;;20.70;70.10;;;;;;5099581;28;20044;-72
2021/08/01 04:37:04;;;;;;;1.52;1.42;;;20.70;70.10;;;;;;5098728;28;20040;-72
2021/08/01 04:39:30;;;;;;;2.28;1.55;;;20.70;70.10;;;;;;5098864;28;20347;-72
2021/08/01 04:41:56;;;;;;;2.08;1.80;;;20.70;70.10;;;;;;5098893;28;20044;-72
2021/08/01 04:44:22;;;;;;;3.08;1.77;;;20.70;70.10;;;;;;5098816;28;20196;-72
2021/08/01 04:46:48;;;;;;;2.10;1.80;;;20.70;70.10;;;;;;5098706;28;20039;-72
2021/08/01 04:49:13;;;;;;;1.90;1.40;;;20.70;70.10;;;;;;5098767;28;20048;-72
2021/08/01 04:51:39;;;;;;;1.60;1.50;;;20.70;70.10;;;;;;5098708;28;20132;-72
2021/08/01 04:54:06;;;;;;;2.35;1.33;;;20.70;70.10;;;;;;5098940;28;20125;-72
2021/08/01 04:56:32;;;;;;;1.98;1.83;;;20.70;70.10;;;;;;5099151;28;20435;-72
2021/08/01 04:58:58;;;;;;;2.97;1.70;;;20.70;70.10;;;;;;5098645;28;20162;-72
2021/08/01 05:01:24;;;;;;;1.70;1.60;;;20.70;70.10;;;;;;5098087;28;20051;-72
2021/08/01 05:03:50;;;;;;;2.42;1.63;;;20.70;70.10;;;;;;5098588;28;20047;-72
2021/08/01 05:06:16;;;;;;;2.67;1.77;;;20.70;70.10;;;;;;5098411;28;20127;-72
2021/08/01 05:08:42;;;;;;;2.60;1.55;;;20.70;70.10;;;;;;5098637;28;20094;-72
2021/08/01 05:11:09;;;;;;;2.33;1.85;;;20.70;70.10;;;;;;5098409;28;20047;-72
2021/08/01 05:13:34;;;;;;;2.38;1.55;;;20.70;70.10;;;;;;5098248;28;20040;-72
2021/08/01 05:16:00;;;;;;;1.85;1.63;;;20.70;70.10;;;;;;5098171;28;20052;-72
2021/08/01 05:18:26;;;;;;;2.45;1.65;;;20.70;70.10;;;;;;5098819;28;20044;-72
2021/08/01 05:20:52;;;;;;;2.03;1.83;;;20.70;70.10;;;;;;5098061;28;20055;-72
2021/08/01 05:23:18;;;;;;;1.73;1.60;;;20.70;70.10;;;;;;5098013;28;20055;-72
2021/08/01 05:25:44;;;;;;;2.67;2.05;;;20.70;70.10;;;;;;5098223;28;20044;-72
2021/08/01 05:28:10;;;;;;;2.80;1.67;;;20.70;70.10;;;;;;5097891;28;20067;-72
2021/08/01 05:30:35;;;;;;;1.85;1.67;;;20.70;70.10;;;;;;5097832;28;20428;-72
2021/08/01 05:33:07;;;;;;;1.98;1.77;;;20.70;70.10;;;;;;5096971;28;20071;-72
2021/08/01 05:35:36;;;;;;;2.10;1.90;;;20.70;70.10;;;;;;5098350;28;20044;-72
2021/08/01 05:38:02;;;;;;;2.28;2.03;;;20.70;70.10;;;;;;5097751;28;20123;-72
2021/08/01 05:40:28;;;;;;;1.73;1.40;;;20.70;70.20;;;;;;5097907;28;20463;-72
2021/08/01 05:42:56;;;;;;;1.70;1.60;;;20.70;70.10;;;;;;5097660;28;20040;-72
2021/08/01 05:45:24;;;;;;;1.75;1.60;;;20.70;70.10;;;;;;5098033;28;20048;-72
2021/08/01 05:47:50;;;;;;;2.17;1.77;;;20.70;70.20;;;;;;5097605;28;20371;-72
2021/08/01 05:50:16;;;;;;;1.98;1.77;;;20.70;70.20;;;;;;5097550;28;20363;-72
2021/08/01 05:52:41;;;;;;;1.92;1.70;;;20.70;70.80;;;;;;5098037;28;20035;-72
2021/08/01 05:55:08;;;;;;;2.97;1.60;;;20.70;70.20;;;;;;5098015;28;20136;-72
2021/08/01 05:57:33;;;;;;;1.75;1.65;;;20.70;70.20;;;;;;5097466;28;20043;-72
2021/08/01 05:59:59;;;;;;;3.03;1.80;;;20.70;70.20;;;;;;5097085;28;20335;-72
2021/08/01 06:02:25;;;;;;;2.03;1.70;;;20.70;70.20;;;;;;5097345;28;20047;-72
2021/08/01 06:04:51;;;;;;;2.53;1.63;;;20.70;70.20;;;;;;5097980;28;20048;-72
2021/08/01 06:07:18;;;;;;;1.83;1.52;;;20.70;70.20;;;;;;5097304;28;20051;-72
2021/08/01 06:09:46;;;;;;;2.00;1.75;;;20.70;70.30;;;;;;5097210;28;20117;-72
2021/08/01 06:12:13;;;;;;;2.22;1.52;;;20.70;70.30;;;;;;5097068;28;20377;-73
2021/08/01 06:14:39;;;;;;;1.70;1.60;;;20.70;70.30;;;;;;5096670;28;20039;-72
2021/08/01 06:17:05;;;;;;;2.55;1.52;;;20.70;70.30;;;;;;5097553;28;20054;-72
2021/08/01 06:19:31;;;;;;;1.75;1.60;;;20.70;70.30;;;;;;5097009;28;20114;-72
2021/08/01 06:21:57;;;;;;;1.73;1.63;;;20.70;70.30;;;;;;5096833;28;20448;-72
2021/08/01 06:24:23;;;;;;;2.03;1.65;;;20.70;70.30;;;;;;5097042;28;20054;-72
2021/08/01 06:26:49;;;;;;;2.97;1.75;;;20.70;70.30;;;;;;5097242;28;20040;-72
2021/08/01 06:29:16;;;;;;;1.83;1.60;;;20.70;70.30;;;;;;5096802;28;20362;-72
2021/08/01 06:31:42;;;;;;;2.13;1.50;;;20.70;70.30;;;;;;5096769;28;20123;-72
2021/08/01 06:34:08;;;;;;;2.00;1.80;;;20.70;70.30;;;;;;5097033;28;20108;-72
2021/08/01 06:36:34;;;;;;;1.50;1.33;;;20.70;70.30;;;;;;5096872;28;20114;-72
2021/08/01 06:38:59;;;;;;;2.20;1.55;;;20.70;70.30;;;;;;5096467;28;20040;-72
2021/08/01 06:41:25;;;;;;;2.28;1.50;;;20.70;70.30;;;;;;5096465;28;20048;-72
2021/08/01 06:43:51;;;;;;;1.77;1.60;;;20.70;70.40;;;;;;5096303;28;20366;-72
2021/08/01 06:46:18;;;;;;;2.25;1.65;;;20.70;70.40;;;;;;5096483;28;20055;-72
2021/08/01 06:48:43;;;;;;;2.08;1.70;;;20.70;70.40;;;;;;5096266;28;20055;-73
2021/08/01 06:51:09;;;;;;;1.73;1.42;;;20.70;70.40;;;;;;5095973;28;20043;-72
2021/08/01 06:53:35;;;;;;;3.05;1.58;;;20.70;70.40;;;;;;5096165;28;20048;-72
2021/08/01 06:56:01;;;;;;;1.92;1.67;;;20.70;70.30;;;;;;5096220;28;20060;-73
2021/08/01 06:58:27;;;;;;;2.08;1.60;;;20.70;70.40;;;;;;5096208;28;20113;-72
2021/08/01 07:00:53;;;;;;;2.10;1.40;;;20.70;70.40;;;;;;5096374;28;20040;-72
2021/08/01 07:03:19;;;;;;;1.58;1.48;;;20.70;70.40;;;;;;5096066;28;20050;-72
2021/08/01 07:05:45;;;;;;;1.88;1.35;;;20.70;70.40;;;;;;5096135;28;20052;-72
2021/08/01 07:08:12;;;;;;;2.15;1.60;;;20.70;70.40;;;;;;5096183;28;20139;-72
2021/08/01 07:10:38;;;;;;;1.75;1.27;;;20.70;70.40;;;;;;5096516;28;20106;-73
2021/08/01 07:13:05;;;;;;;2.08;1.40;;;20.70;70.40;;;;;;5096279;28;20131;-72
2021/08/01 07:15:32;;;;;;;1.65;1.45;;;20.70;70.40;;;;;;5095641;28;20044;-72
2021/08/01 07:17:58;;;;;;;2.67;1.73;;;20.70;70.40;;;;;;5096444;28;20052;-73
2021/08/01 07:20:25;;;;;;;1.60;1.30;;;20.70;70.40;;;;;;5096092;28;20040;-73
2021/08/01 07:22:51;;;;;;;2.00;1.40;;;20.70;70.40;;;;;;5096407;28;20040;-73
2021/08/01 07:25:18;;;;;;;1.75;1.20;;;20.70;70.40;;;;;;5095726;28;20043;-72
2021/08/01 07:27:44;;;;;;;1.52;1.40;;;20.70;70.40;;;;;;5095619;28;20040;-72
2021/08/01 07:30:10;;;;;;;1.50;1.40;;;20.70;70.40;;;;;;5096365;28;20059;-73
2021/08/01 07:32:36;;;;;;;1.52;1.20;;;20.70;70.40;;;;;;5096071;28;20040;-73
2021/08/01 07:35:02;;;;;;;1.73;1.35;;;20.70;70.40;;;;;;5095607;28;20059;-72
2021/08/01 07:37:28;;;;;;;3.13;1.58;;;20.70;70.40;;;;;;5095583;28;20082;-72
2021/08/01 07:39:54;;;;;;;2.45;1.23;;;20.70;70.40;;;;;;5095335;28;20087;-72
2021/08/01 07:42:20;;;;;;;1.80;1.20;;;20.60;70.40;;;;;;5096024;28;20108;-72
2021/08/01 07:44:47;;;;;;;2.00;1.48;;;20.70;70.40;;;;;;5095491;28;20036;-73
2021/08/01 07:47:17;;;;;;;1.63;1.25;;;20.70;70.40;;;;;;5095277;28;20316;-72
2021/08/01 07:49:44;;;;;;;1.35;1.25;;;20.70;70.40;;;;;;5095440;28;20055;-72
2021/08/01 07:52:11;;;;;;;1.75;1.45;;;20.70;70.40;;;;;;5095314;28;20439;-72
2021/08/01 07:54:38;;;;;;;2.25;1.48;;;20.60;70.40;;;;;;5094841;28;20032;-72
2021/08/01 07:57:04;;;;;;;1.60;1.10;;;20.70;70.50;;;;;;5094903;28;20101;-72
2021/08/01 07:59:30;;;;;;;1.10;1.00;;;20.70;70.40;;;;;;5095244;28;20109;-72
2021/08/01 08:01:56;;;;;;;1.60;1.17;;;20.70;70.50;;;;;;5095148;28;20367;-73
2021/08/01 08:04:22;;;;;;;1.33;1.00;;;20.70;70.50;;;;;;5095646;28;20051;-72
2021/08/01 08:06:48;;;;;;;2.10;1.50;;;20.70;70.50;;;;;;5095272;28;20427;-72
2021/08/01 08:09:14;;;;;;;1.50;1.30;;;20.70;70.50;;;;;;5094986;28;20064;-72
2021/08/01 08:11:40;;;;;;;1.88;1.42;;;20.70;70.60;;;;;;5095110;28;20079;-73
2021/08/01 08:14:06;;;;;;;1.23;0.90;;;20.70;70.60;;;;;;5095561;28;20055;-72
2021/08/01 08:16:33;;;;;;;1.73;0.90;;;20.70;70.60;;;;;;5095042;28;20040;-72
2021/08/01 08:18:59;;;;;;;1.48;1.38;;;20.70;70.60;;;;;;5095038;28;20093;-72
2021/08/01 08:21:26;;;;;;;2.53;1.27;;;20.70;70.60;;;;;;5095021;28;20044;-72
2021/08/01 08:23:53;;;;;;;1.92;1.10;;;20.70;70.60;;;;;;5094946;28;20093;-72
2021/08/01 08:26:19;;;;;;;1.52;1.15;;;20.70;70.60;;;;;;5095520;28;20052;-72
2021/08/01 08:28:44;;;;;;;1.05;0.88;;;20.70;70.60;;;;;;5095419;28;20113;-72
2021/08/01 08:31:10;;;;;;;1.42;0.98;;;20.70;70.60;;;;;;5094791;28;20044;-72
2021/08/01 08:33:37;;;;;;;1.42;1.10;;;20.70;70.70;;;;;;5094939;28;20086;-72
2021/08/01 08:36:03;;;;;;;0.90;0.77;;;20.70;70.70;;;;;;5094951;28;20063;-72
2021/08/01 08:38:29;;;;;;;1.35;1.20;;;20.70;70.70;;;;;;5094816;28;20043;-72
2021/08/01 08:40:55;;;;;;;1.10;0.88;;;20.70;70.70;;;;;;5094600;28;20039;-72
2021/08/01 08:43:20;;;;;;;1.45;0.90;;;20.70;70.70;;;;;;5094809;28;20040;-72
2021/08/01 08:45:48;;;;;;;1.55;0.82;;;20.70;70.70;;;;;;5094705;28;20036;-72
2021/08/01 08:48:16;;;;;;;1.20;1.00;;;20.70;70.70;;;;;;5094781;28;20134;-72
2021/08/01 08:50:47;;;;;;;1.08;0.85;;;20.70;70.70;;;;;;5094521;28;20443;-72
2021/08/01 08:53:18;;;;;;;1.52;0.90;;;20.70;70.80;;;;;;5094919;28;20119;-72
2021/08/01 08:55:44;;;;;;;1.40;1.00;;;20.70;70.80;;;;;;5094711;28;20048;-72
2021/08/01 08:58:12;;;;;;;1.88;1.10;;;20.70;70.70;;;;;;5094671;28;20046;-72
2021/08/01 09:00:38;;;;;;;2.58;1.15;;;20.70;70.70;;;;;;5094511;28;20036;-72
2021/08/01 09:03:03;;;;;;;2.00;1.20;;;20.70;70.70;;;;;;5094476;28;20421;-72
2021/08/01 09:05:31;;;;;;;1.20;0.88;;;20.70;70.70;;;;;;5094624;28;20063;-72
2021/08/01 09:07:57;;;;;;;1.05;0.85;;;20.70;70.70;;;;;;5096053;28;20039;-72
2021/08/01 09:10:23;;;;;;;1.38;1.08;;;20.70;70.70;;;;;;5098334;28;20111;-72
2021/08/01 09:12:53;;;;;;;1.45;1.00;;;20.70;70.70;;;;;;5098405;28;20416;-72
2021/08/01 09:15:23;;;;;;;2.58;0.98;;;20.80;70.70;;;;;;5097960;28;20036;-72
2021/08/01 09:17:50;;;;;;;1.30;0.73;;;20.80;71.30;;;;;;5098190;28;20040;-72
2021/08/01 09:20:26;;;;;;;2.03;1.25;;;20.80;70.70;;;;;;5098042;28;20104;-72
2021/08/01 09:23:01;;;;;;;1.63;0.82;;;20.70;70.70;;;;;;5098019;28;20051;-72
2021/08/01 09:25:31;;;;;;;1.10;0.63;;;20.70;70.70;;;;;;5097934;28;20036;-72
2021/08/01 09:28:07;;;;;;;1.42;1.00;;;20.70;70.70;;;;;;5097874;28;20055;-72
2021/08/01 09:30:46;;;;;;;1.17;0.82;;;20.80;70.70;;;;;;5097908;28;20036;-72
2021/08/01 09:33:12;;;;;;;1.10;0.75;;;20.80;70.70;;;;;;5097791;28;20097;-72
2021/08/01 09:35:39;;;;;;;1.20;0.90;;;20.80;70.80;;;;;;5098089;28;20442;-72
2021/08/01 09:38:05;;;;;;;1.35;0.98;;;20.80;70.80;;;;;;5097997;28;20107;-72
2021/08/01 09:40:34;;;;;;;1.23;0.80;;;20.70;70.80;;;;;;5097622;28;20466;-72
2021/08/01 09:43:11;;;;;;;1.15;0.70;;;20.80;70.90;;;;;;5097661;28;20387;-72
2021/08/01 09:45:37;;;;;;;1.15;0.85;;;20.80;70.80;;;;;;5097752;28;20113;-72
2021/08/01 09:48:23;;;;;;;0.80;0.68;;;20.80;70.90;;;;;;5098285;28;20050;-72
2021/08/01 09:50:58;;;;;;;1.60;1.10;;;20.80;70.80;;;;;;5098326;28;20070;-72
2021/08/01 09:53:25;;;;;;;0.80;0.75;;;20.80;70.90;;;;;;5097317;28;20036;-72
2021/08/01 09:56:12;;;;;;;1.38;0.80;;;20.80;70.90;;;;;;5097966;28;20047;-72
2021/08/01 09:58:38;;;;;;;0.70;0.55;;;20.80;70.80;;;;;;5097290;28;20036;-72
2021/08/01 10:01:05;;;;;;;1.50;0.90;;;20.80;70.90;;;;;;5097404;28;20451;-72
2021/08/01 10:03:44;;;;;;;0.80;0.52;;;20.80;70.90;;;;;;5097840;28;20039;-72
2021/08/01 10:06:18;;;;;;;1.33;0.75;;;20.80;70.90;;;;;;5097221;28;20071;-72
2021/08/01 10:08:45;;;;;;;1.40;0.85;;;20.80;70.90;;;;;;5097256;28;20046;-72
2021/08/01 10:11:12;;;;;;;1.38;0.63;;;20.80;70.90;;;;;;5097834;28;20111;-72
2021/08/01 10:13:39;;;;;;;0.80;0.75;;;20.80;70.90;;;;;;5097714;28;20052;-72
2021/08/01 10:16:08;;;;;;;1.55;0.70;;;20.80;70.90;;;;;;5097162;28;20490;-72
2021/08/01 10:18:35;;;;;;;1.25;0.70;;;20.80;70.90;;;;;;5096474;28;20054;-72
2021/08/01 10:21:01;;;;;;;1.75;0.75;;;20.90;70.90;;;;;;5097028;28;20046;-72
2021/08/01 10:23:31;;;;;;;1.00;0.70;;;20.90;70.90;;;;;;5096809;28;20043;-72
2021/08/01 10:26:00;;;;;;;0.88;0.55;;;20.90;70.90;;;;;;5097103;28;20036;-72
2021/08/01 10:28:29;;;;;;;1.23;0.68;;;20.90;70.80;;;;;;5096673;28;20397;-72
2021/08/01 10:31:00;;;;;;;1.10;0.70;;;20.90;70.80;;;;;;5096777;28;20040;-72
2021/08/01 10:33:35;;;;;;;1.30;0.60;;;20.90;70.70;;;;;;5097171;28;20118;-72
2021/08/01 10:36:03;;;;;;;1.30;0.70;;;20.90;70.70;;;;;;5097137;28;20047;-72
2021/08/01 10:38:34;;;;;;;0.70;0.55;;;20.90;70.70;;;;;;5096970;28;20126;-72
2021/08/01 10:41:01;;;;;;;0.88;0.50;;;20.90;70.70;;;;;;5096682;28;20040;-72
2021/08/01 10:43:31;;;;;;;1.38;0.80;;;20.90;70.70;;;;;;5097017;28;20036;-73
2021/08/01 10:45:58;;;;;;;0.95;0.60;;;20.90;70.70;;;;;;5097023;28;20040;-72
2021/08/01 10:48:27;;;;;;;0.88;0.68;;;20.90;70.80;;;;;;5096487;28;20040;-72
2021/08/01 10:50:54;;;;;;;0.82;0.70;;;20.90;70.80;;;;;;5096710;28;20127;-72
2021/08/01 10:53:26;;;;;;;1.00;0.60;;;20.90;70.70;;;;;;5096237;28;20047;-72
2021/08/01 10:56:06;;;;;;;1.10;0.50;;;20.90;70.70;;;;;;5096544;28;20054;-72
2021/08/01 10:58:36;;;;;;;1.38;0.68;;;20.90;70.70;;;;;;5096603;28;20039;-72
2021/08/01 11:01:04;;;;;;;1.00;0.70;;;21.00;70.80;;;;;;5096331;28;20040;-72
2021/08/01 11:03:32;;;;;;;1.05;0.52;;;21.00;70.80;;;;;;5096847;28;20049;-72
2021/08/01 11:05:59;;;;;;;1.95;0.60;;;21.00;70.80;;;;;;5096089;28;20044;-72
2021/08/01 11:08:25;;;;;;;1.13;0.57;;;21.00;70.80;;;;;;5096079;28;20043;-72
2021/08/01 11:11:09;;;;;;;0.73;0.55;;;21.00;70.80;;;;;;5096017;28;20598;-72
2021/08/01 11:13:38;;;;;;;1.83;0.55;;;21.00;70.70;;;;;;5096264;28;20123;-72
2021/08/01 11:16:06;;;;;;;0.63;0.50;;;21.00;70.80;;;;;;5095859;28;20067;-72
2021/08/01 11:18:34;;;;;;;0.90;0.60;;;21.00;70.70;;;;;;5095863;28;20032;-72
2021/08/01 11:21:03;;;;;;;1.27;0.50;;;21.00;70.70;;;;;;5095814;28;20101;-72
2021/08/01 11:23:47;;;;;;;1.48;0.75;;;21.00;71.20;;;;;;5096383;28;20040;-72
2021/08/01 11:26:14;;;;;;;0.82;0.75;;;21.00;70.60;;;;;;5095805;28;20036;-72
2021/08/01 11:28:42;;;;;;;0.90;0.60;;;21.00;70.70;;;;;;5095657;28;20346;-72
2021/08/01 11:31:21;;;;;;;1.02;0.47;;;21.00;70.70;;;;;;5095087;28;20040;-72
2021/08/01 11:33:56;;;;;;;0.98;0.60;;;21.00;70.60;;;;;;5095533;28;20380;-72
2021/08/01 11:36:27;;;;;;;1.50;0.70;;;21.00;70.70;;;;;;5095631;28;20040;-72
2021/08/01 11:38:58;;;;;;;0.85;0.50;;;21.00;70.60;;;;;;5095599;28;20040;-72
2021/08/01 11:41:31;;;;;;;0.80;0.50;;;21.00;70.70;;;;;;5095858;28;20048;-72
2021/08/01 11:44:01;;;;;;;1.10;0.77;;;21.00;70.70;;;;;;5095434;28;20032;-72
2021/08/01 11:46:28;;;;;;;1.17;0.50;;;21.00;70.60;;;;;;5095497;28;20116;-72
2021/08/01 11:49:03;;;;;;;1.83;0.50;;;21.00;70.60;;;;;;5095970;28;20083;-72
2021/08/01 11:51:32;;;;;;;1.52;0.70;;;21.00;70.60;;;;;;5095408;28;20044;-72
2021/08/01 11:53:59;;;;;;;0.90;0.60;;;21.00;70.60;;;;;;5095076;28;20038;-72
2021/08/01 11:56:26;;;;;;;1.98;0.68;;;21.00;70.60;;;;;;5095865;28;20047;-72
2021/08/01 11:58:54;;;;;;;0.60;0.43;;;21.00;70.50;;;;;;5095053;28;20083;-72
2021/08/01 12:01:21;;;;;;;0.95;0.75;;;21.00;70.50;;;;;;5095728;28;20040;-72
2021/08/01 12:03:51;;;;;;;0.70;0.50;;;21.00;70.40;;;;;;5095534;28;20050;-72
2021/08/01 12:06:36;;;;;;;1.23;0.68;;;21.00;70.30;;;;;;5095350;28;20040;-72
2021/08/01 12:09:26;;;;;;;1.48;0.60;;;21.10;70.40;;;;;;5095039;28;20127;-72
2021/08/01 12:11:54;;;;;;;1.45;0.70;;;21.00;70.20;;;;;;5094927;28;20467;-72
2021/08/01 12:14:34;;;;;;;1.00;0.50;;;21.00;70.30;;;;;;5095124;28;20142;-72
2021/08/01 12:17:06;;;;;;;0.88;0.50;;;21.10;70.30;;;;;;5095636;28;20043;-72
2021/08/01 12:19:45;;;;;;;1.00;0.63;;;21.10;70.30;;;;;;5095070;28;20035;-72
2021/08/01 12:22:19;;;;;;;1.33;0.60;;;21.10;70.20;;;;;;5095060;28;20121;-72
2021/08/01 12:24:56;;;;;;;1.05;0.40;;;21.10;70.30;;;;;;5095061;28;20055;-72
2021/08/01 12:27:30;;;;;;;1.13;0.55;;;21.10;70.20;;;;;;5095190;28;20097;-72
2021/08/01 12:30:05;;;;;;;0.93;0.73;;;21.10;70.20;;;;;;5095188;28;20152;-73
2021/08/01 12:32:32;;;;;;;0.95;0.50;;;21.10;70.10;;;;;;5095110;28;20039;-72
2021/08/01 12:35:24;;;;;;;0.80;0.50;;;21.10;70.10;;;;;;5095245;28;20065;-72
2021/08/01 12:38:00;;;;;;;2.13;0.80;;;21.10;70.10;;;;;;5094907;28;20098;-72
2021/08/01 12:40:28;;;;;;;0.70;0.50;;;21.10;70.10;;;;;;5094834;28;20125;-72
2021/08/01 12:42:58;;;;;;;0.77;0.40;;;21.10;70.10;;;;;;5097708;28;20054;-72
2021/08/01 12:45:37;;;;;;;0.60;0.43;;;21.10;70.00;;;;;;5099188;28;20036;-72
2021/08/01 12:48:05;;;;;;;0.82;0.43;;;21.10;70.00;;;;;;5099391;28;20040;-72
2021/08/01 12:50:32;;;;;;;3.13;0.60;;;21.10;70.00;;;;;;5098918;28;20043;-72
2021/08/01 12:52:59;;;;;;;0.88;0.50;;;21.10;70.00;;;;;;5098586;28;20051;-72
2021/08/01 12:55:26;;;;;;;2.25;0.65;;;21.10;69.90;;;;;;5098560;28;20138;-72